Halltown, West Virginia
Current Conditions -  °F | °C
As of 11:53 PM on Wednesday 17 Dec 2014 (Local Time) from KMRB Reporting Station
Overcast Overcast  
Wind Chill: 27°   Ceiling: 4500
Heat Index: 37°   Visibility: 10mi
Dew Point: 19°   Wind: 20mph
Humidity: 48%   Direction: 290°WNW
Pressure: 30.08"   Gusts: 24mph
Location:  39.31°N, 77.8°W
Report Text: KMRB 180453Z AUTO 29017G21KT 10SM OVC045 03/M07 A3008 RMK AO2 SLP189 T00281072 400940028 TSNO
Loading
Personal Weather Stations






























Interactive Weather Map New forecast layout! Learn more

10-Day Weather Forecast

Advertisements
Track Severe Weather on mobile